createdAt,value
2022-11-17T00:05:04.215Z,100.00
2022-11-17T00:15:25.736Z,100.00
2022-11-17T00:25:47.179Z,100.00
2022-11-17T00:36:08.779Z,100.00
2022-11-17T00:46:30.507Z,100.00
2022-11-17T00:56:52.004Z,100.00
2022-11-17T01:07:13.588Z,100.00
2022-11-17T01:17:35.151Z,100.00
2022-11-17T01:27:56.629Z,100.00
2022-11-17T01:38:18.087Z,100.00
2022-11-17T01:48:43.434Z,100.00
2022-11-17T01:59:14.275Z,100.00
2022-11-17T02:09:38.910Z,100.00
2022-11-17T02:20:13.242Z,100.00
2022-11-17T02:30:49.119Z,100.00
2022-11-17T02:41:22.963Z,100.00
2022-11-17T02:51:48.162Z,100.00
2022-11-17T03:02:36.237Z,99.36
2022-11-17T03:13:10.808Z,99.14
2022-11-17T03:23:44.890Z,98.94
2022-11-17T03:34:11.796Z,99.10
2022-11-17T03:44:36.817Z,99.36
2022-11-17T03:54:58.831Z,98.69
2022-11-17T04:05:20.239Z,99.31
2022-11-17T04:15:56.828Z,98.53
2022-11-17T04:26:36.826Z,98.47
2022-11-17T04:36:58.360Z,97.91
2022-11-17T04:47:19.827Z,98.31
2022-11-17T04:57:41.281Z,98.33
2022-11-17T05:08:05.325Z,97.70
2022-11-17T05:18:26.768Z,98.77
2022-11-17T05:28:48.345Z,98.49
2022-11-17T05:39:10.319Z,99.80
2022-11-17T05:49:31.661Z,99.56
2022-11-17T05:59:59.588Z,100.00
2022-11-17T06:10:21.159Z,99.12
2022-11-17T06:20:48.405Z,99.94
2022-11-17T06:31:10.211Z,100.00
2022-11-17T06:41:31.691Z,100.00
2022-11-17T06:51:55.910Z,100.00
2022-11-17T07:02:17.385Z,100.00
2022-11-17T07:12:38.995Z,100.00
2022-11-17T07:23:00.468Z,100.00
2022-11-17T07:33:22.788Z,100.00
2022-11-17T07:43:44.230Z,100.00
2022-11-17T07:54:05.830Z,100.00
2022-11-17T08:04:27.302Z,100.00
2022-11-17T08:14:48.957Z,100.00
2022-11-17T08:25:10.499Z,100.00
2022-11-17T08:35:37.483Z,100.00
2022-11-17T08:45:59.327Z,100.00
2022-11-17T08:56:21.155Z,100.00
2022-11-17T09:06:42.678Z,100.00
2022-11-17T09:17:04.155Z,100.00
2022-11-17T09:27:25.705Z,100.00
2022-11-17T09:37:47.215Z,100.00
2022-11-17T09:48:43.571Z,100.00
2022-11-17T09:59:06.032Z,100.00
2022-11-17T10:09:42.266Z,100.00
2022-11-17T10:20:17.289Z,100.00
2022-11-17T10:30:38.833Z,100.00
2022-11-17T10:41:03.137Z,100.00
2022-11-17T10:51:26.626Z,100.00
2022-11-17T11:01:51.010Z,100.00
2022-11-17T11:12:18.970Z,100.00
2022-11-17T11:22:52.610Z,100.00
2022-11-17T11:33:35.090Z,100.00
2022-11-17T11:44:24.521Z,100.00
2022-11-17T11:55:03.747Z,100.00
2022-11-17T12:05:37.440Z,100.00
2022-11-17T12:16:19.276Z,100.00
2022-11-17T12:26:40.640Z,100.00
2022-11-17T12:37:16.472Z,100.00
2022-11-17T12:47:59.199Z,100.00
2022-11-17T12:58:51.756Z,100.00
2022-11-17T13:09:13.280Z,100.00
2022-11-17T13:19:37.584Z,100.00
2022-11-17T13:30:22.522Z,100.00
2022-11-17T13:40:45.710Z,100.00
2022-11-17T13:51:28.932Z,100.00
2022-11-17T14:02:16.133Z,100.00
2022-11-17T14:12:37.607Z,100.00
2022-11-17T14:23:16.540Z,100.00
2022-11-17T14:33:37.987Z,100.00
2022-11-17T14:43:59.480Z,100.00
2022-11-17T14:54:21.110Z,100.00
2022-11-17T15:04:50.669Z,100.00
2022-11-17T15:15:12.832Z,100.00
2022-11-17T15:25:34.341Z,100.00
2022-11-17T15:36:03.453Z,100.00
2022-11-17T15:46:25.030Z,100.00
2022-11-17T15:56:46.540Z,100.00
2022-11-17T16:07:08.166Z,100.00
2022-11-17T16:17:29.681Z,100.00
2022-11-17T16:27:51.163Z,100.00
2022-11-17T16:38:14.899Z,100.00
2022-11-17T16:48:36.349Z,100.00
2022-11-17T16:58:58.760Z,100.00
2022-11-17T17:09:24.903Z,100.00
2022-11-17T17:19:49.205Z,100.00
2022-11-17T17:30:11.354Z,100.00
2022-11-17T17:40:33.954Z,100.00
2022-11-17T17:51:07.944Z,100.00
2022-11-17T18:01:33.182Z,100.00
2022-11-17T18:11:54.769Z,100.00
2022-11-17T18:22:16.297Z,100.00
2022-11-17T18:32:37.754Z,100.00
2022-11-17T18:43:01.493Z,100.00
2022-11-17T18:53:22.945Z,100.00
2022-11-17T19:03:46.579Z,100.00
2022-11-17T19:14:08.068Z,100.00
2022-11-17T19:24:29.525Z,100.00
2022-11-17T19:34:51.851Z,100.00
2022-11-17T19:45:13.444Z,100.00
2022-11-17T19:55:35.030Z,100.00
2022-11-17T20:06:00.031Z,100.00
2022-11-17T20:16:26.466Z,100.00
2022-11-17T20:26:49.039Z,100.00
2022-11-17T20:37:10.496Z,100.00
2022-11-17T20:47:32.042Z,100.00
2022-11-17T20:57:53.523Z,100.00
2022-11-17T21:08:14.995Z,100.00
2022-11-17T21:18:38.526Z,100.00
2022-11-17T21:29:06.013Z,100.00
2022-11-17T21:39:28.078Z,100.00
2022-11-17T21:49:49.658Z,100.00
2022-11-17T22:00:11.659Z,100.00
2022-11-17T22:10:34.755Z,100.00
2022-11-17T22:20:56.439Z,100.00
2022-11-17T22:31:18.426Z,100.00
2022-11-17T22:41:39.802Z,100.00
2022-11-17T22:52:04.179Z,100.00
2022-11-17T23:02:25.718Z,100.00
2022-11-17T23:12:47.230Z,100.00
2022-11-17T23:23:08.743Z,100.00
2022-11-17T23:33:35.529Z,100.00
2022-11-17T23:43:57.007Z,100.00
2022-11-17T23:54:18.480Z,100.00
